Yuma, AZ

1:08 AM MST on October 20, 2014 (GMT -0700)
Yuma Marine Corps Air Station | Change Station
CLOSE
Current Station
Airport
Location: Yuma MCAS,
Elevation: 213 ft
Nearby Weather Stations

Elev 213 ft 32.66 °N, 114.61 °W | Updated 11 minutes ago

Clear
Clear
76 °F
Feels Like 76 °F
N
5
Wind Variable Wind from SE

Today
High -- | Low -- °F
--% Chance of Precip.
Yesterday
High -- | Low -- °F
Precip. -- in
6:46 AM 5:59 PM
Waning Crescent, 12% visible
Pressure 29.78 in
Visibility 10.0 miles
Clouds Clear
Dew Point 63 °F
Humidity 64%
Rainfall 0.00 in
Snow Depth Not available.
UV 0 out of 12
Pollen 6.80 out of 12
Air Quality Not available.
Flu Activity No Activity
METAR KNYL 200757Z 14004KT 10SM CLR 24/17 A2978 RMK AO2 SLP083 T02440172 $

More Conditions Fewer Conditions

Pressure 29.78 in
Visibility 10.0 miles
Clouds Clear
Dew Point 63 °F
Humidity 64%
Rainfall 0.00 in
Snow Depth Not available.
UV 0 out of 12
Pollen 6.80 out of 12
Air Quality Not available.
Flu Activity No Activity
METAR KNYL 200757Z 14004KT 10SM CLR 24/17 A2978 RMK AO2 SLP083 T02440172 $

More Conditions Fewer Conditions

10-Day Weather Forecast

Almanac

Astronomy

Oct. 20, 2014 Rise Set
Actual Time 6:46 AM MST 5:59 PM MST
Civil Twilight 6:21 AM MST 6:24 PM MST
Nautical Twilight 5:52 AM MST 6:53 PM MST
Astronomical Twilight 5:24 AM MST 7:21 PM MST
Moon 3:48 AM MST 4:15 PM MST
Length of Visible Light 12h 03m
Length of Day
11h 13m
Waning Crescent, 12% of the Moon is Illuminated
Today
Waning Crescent
Oct 23
New
Oct 30
First Quarter
Nov 6
Full
Nov 14
Last Quarter

Today's Extremes

State Highs State Lows

Community

WunderPhotos

Upload Photos

1,763,316 photos uploaded!

Nearby

Snow Depth

Station Depth Elevation
White Horse Lake 1 in 7180 ft
Baker Butte 1 in 7300 ft
Workman Creek 1 in 6900 ft
Happy Jack 0 in 7630 ft
Mormon Mountain 0 in 7500 ft

Earthquake Activity

City Distance Mag. Time & Date
No recent earthquake activity has been reported nearby.
Minimum magnitude displayed is 2.5.

Coastal Water Temperatures

Place Temperature
No Stations Reporting

Nearby Weather Stations